sensor_id;sensor_type;location;lat;lon;timestamp;temperature;humidity
23729;DHT22;12045;60.214;24.724;2023-05-21T10:09:02;22.60;50.70
23729;DHT22;12045;60.214;24.724;2023-05-21T10:16:37;24.40;48.50
23729;DHT22;12045;60.214;24.724;2023-05-21T10:19:05;24.70;48.60
23729;DHT22;12045;60.214;24.724;2023-05-21T10:21:37;24.70;48.60
23729;DHT22;12045;60.214;24.724;2023-05-21T10:24:07;24.90;47.90
23729;DHT22;12045;60.214;24.724;2023-05-21T10:26:35;25.10;47.60
23729;DHT22;12045;60.214;24.724;2023-05-21T10:29:04;25.20;47.40
23729;DHT22;12045;60.214;24.724;2023-05-21T10:31:32;25.30;47.10
23729;DHT22;12045;60.214;24.724;2023-05-21T10:34:02;26.00;47.90
23729;DHT22;12045;60.214;24.724;2023-05-21T10:36:33;25.50;49.00
23729;DHT22;12045;60.214;24.724;2023-05-21T10:39:03;25.40;47.70
23729;DHT22;12045;60.214;24.724;2023-05-21T10:41:37;25.20;47.90
23729;DHT22;12045;60.214;24.724;2023-05-21T10:53:10;25.00;47.90
23729;DHT22;12045;60.214;24.724;2023-05-21T10:59:11;24.80;48.80
23729;DHT22;12045;60.214;24.724;2023-05-21T11:01:17;25.00;48.00
23729;DHT22;12045;60.214;24.724;2023-05-21T11:03:46;25.20;46.70
23729;DHT22;12045;60.214;24.724;2023-05-21T11:06:22;25.30;47.20
23729;DHT22;12045;60.214;24.724;2023-05-21T11:08:51;25.20;45.60
23729;DHT22;12045;60.214;24.724;2023-05-21T11:11:44;25.10;45.70
23729;DHT22;12045;60.214;24.724;2023-05-21T11:14:34;25.00;45.30
23729;DHT22;12045;60.214;24.724;2023-05-21T11:17:15;24.90;45.10
23729;DHT22;12045;60.214;24.724;2023-05-21T11:19:44;24.70;45.20
23729;DHT22;12045;60.214;24.724;2023-05-21T11:25:00;24.20;45.00
23729;DHT22;12045;60.214;24.724;2023-05-21T11:27:36;24.40;45.60
23729;DHT22;12045;60.214;24.724;2023-05-21T11:30:08;24.40;44.90
23729;DHT22;12045;60.214;24.724;2023-05-21T11:32:37;24.40;45.20
23729;DHT22;12045;60.214;24.724;2023-05-21T11:35:06;24.50;44.60
23729;DHT22;12045;60.214;24.724;2023-05-21T11:37:34;24.70;44.40
23729;DHT22;12045;60.214;24.724;2023-05-21T11:40:22;24.80;44.80
23729;DHT22;12045;60.214;24.724;2023-05-21T11:42:53;24.90;45.00
23729;DHT22;12045;60.214;24.724;2023-05-21T11:45:26;24.70;43.70
23729;DHT22;12045;60.214;24.724;2023-05-21T11:47:55;24.70;43.90
23729;DHT22;12045;60.214;24.724;2023-05-21T11:50:23;24.90;44.70
23729;DHT22;12045;60.214;24.724;2023-05-21T11:52:51;24.80;43.40
23729;DHT22;12045;60.214;24.724;2023-05-21T11:55:23;24.80;45.10
23729;DHT22;12045;60.214;24.724;2023-05-21T11:57:53;24.90;44.50
23729;DHT22;12045;60.214;24.724;2023-05-21T12:00:21;24.90;44.30
23729;DHT22;12045;60.214;24.724;2023-05-21T12:02:50;25.00;44.40
23729;DHT22;12045;60.214;24.724;2023-05-21T12:05:19;25.00;43.80
23729;DHT22;12045;60.214;24.724;2023-05-21T12:07:47;25.10;44.20
23729;DHT22;12045;60.214;24.724;2023-05-21T12:10:21;25.30;44.80
23729;DHT22;12045;60.214;24.724;2023-05-21T12:12:59;25.20;44.10
23729;DHT22;12045;60.214;24.724;2023-05-21T12:15:28;25.20;43.80
23729;DHT22;12045;60.214;24.724;2023-05-21T12:17:55;25.20;43.70
23729;DHT22;12045;60.214;24.724;2023-05-21T12:20:27;25.10;44.40
23729;DHT22;12045;60.214;24.724;2023-05-21T12:22:56;25.20;45.00
23729;DHT22;12045;60.214;24.724;2023-05-21T12:25:23;25.30;44.20
23729;DHT22;12045;60.214;24.724;2023-05-21T12:27:51;25.00;44.70
23729;DHT22;12045;60.214;24.724;2023-05-21T12:30:25;24.80;44.30
23729;DHT22;12045;60.214;24.724;2023-05-21T12:32:52;24.50;45.30
23729;DHT22;12045;60.214;24.724;2023-05-21T12:35:23;24.30;46.00
23729;DHT22;12045;60.214;24.724;2023-05-21T12:37:51;24.30;46.20
23729;DHT22;12045;60.214;24.724;2023-05-21T12:40:19;24.40;46.10
23729;DHT22;12045;60.214;24.724;2023-05-21T12:42:47;24.50;45.00
23729;DHT22;12045;60.214;24.724;2023-05-21T12:45:16;24.60;45.80
23729;DHT22;12045;60.214;24.724;2023-05-21T12:47:47;24.70;45.30
23729;DHT22;12045;60.214;24.724;2023-05-21T12:50:19;24.80;45.40
23729;DHT22;12045;60.214;24.724;2023-05-21T12:52:47;24.90;45.10
23729;DHT22;12045;60.214;24.724;2023-05-21T12:55:15;24.90;45.30
23729;DHT22;12045;60.214;24.724;2023-05-21T12:57:43;25.10;44.20
23729;DHT22;12045;60.214;24.724;2023-05-21T13:00:11;25.30;44.20
23729;DHT22;12045;60.214;24.724;2023-05-21T13:02:40;25.20;44.20
23729;DHT22;12045;60.214;24.724;2023-05-21T13:05:10;25.10;44.40
23729;DHT22;12045;60.214;24.724;2023-05-21T13:07:42;25.20;45.00
23729;DHT22;12045;60.214;24.724;2023-05-21T13:10:14;25.00;44.10
23729;DHT22;12045;60.214;24.724;2023-05-21T13:12:43;24.90;44.20
23729;DHT22;12045;60.214;24.724;2023-05-21T13:15:11;24.80;44.80
23729;DHT22;12045;60.214;24.724;2023-05-21T13:17:39;24.60;45.10
23729;DHT22;12045;60.214;24.724;2023-05-21T13:20:18;24.30;45.60
23729;DHT22;12045;60.214;24.724;2023-05-21T13:22:52;24.50;45.30
23729;DHT22;12045;60.214;24.724;2023-05-21T13:25:22;24.30;45.10
23729;DHT22;12045;60.214;24.724;2023-05-21T13:27:52;24.10;45.20
23729;DHT22;12045;60.214;24.724;2023-05-21T13:30:20;23.80;45.40
23729;DHT22;12045;60.214;24.724;2023-05-21T13:32:48;23.70;46.50
23729;DHT22;12045;60.214;24.724;2023-05-21T13:35:16;23.50;46.20
23729;DHT22;12045;60.214;24.724;2023-05-21T13:37:44;23.30;45.00
23729;DHT22;12045;60.214;24.724;2023-05-21T13:40:13;23.20;45.20
23729;DHT22;12045;60.214;24.724;2023-05-21T13:42:46;23.10;46.60
23729;DHT22;12045;60.214;24.724;2023-05-21T13:45:16;23.00;46.20
23729;DHT22;12045;60.214;24.724;2023-05-21T13:47:45;22.90;45.80
23729;DHT22;12045;60.214;24.724;2023-05-21T13:50:13;22.70;46.40
23729;DHT22;12045;60.214;24.724;2023-05-21T13:52:40;22.80;47.30
23729;DHT22;12045;60.214;24.724;2023-05-21T13:55:08;22.70;45.90
23729;DHT22;12045;60.214;24.724;2023-05-21T13:57:37;22.70;46.00
23729;DHT22;12045;60.214;24.724;2023-05-21T14:00:05;22.60;46.40
23729;DHT22;12045;60.214;24.724;2023-05-21T14:02:35;22.50;46.20
23729;DHT22;12045;60.214;24.724;2023-05-21T14:05:03;22.40;47.10
23729;DHT22;12045;60.214;24.724;2023-05-21T14:07:30;22.20;48.10
23729;DHT22;12045;60.214;24.724;2023-05-21T14:09:58;22.10;48.60
23729;DHT22;12045;60.214;24.724;2023-05-21T14:12:26;22.00;50.10
23729;DHT22;12045;60.214;24.724;2023-05-21T14:14:54;22.00;50.10
23729;DHT22;12045;60.214;24.724;2023-05-21T14:17:22;22.00;49.70
23729;DHT22;12045;60.214;24.724;2023-05-21T14:19:49;22.00;50.40
23729;DHT22;12045;60.214;24.724;2023-05-21T14:22:16;21.90;50.20
23729;DHT22;12045;60.214;24.724;2023-05-21T14:24:44;21.80;51.10
23729;DHT22;12045;60.214;24.724;2023-05-21T14:27:12;21.80;51.10
23729;DHT22;12045;60.214;24.724;2023-05-21T14:29:41;21.80;51.70
23729;DHT22;12045;60.214;24.724;2023-05-21T14:32:09;21.70;51.50
23729;DHT22;12045;60.214;24.724;2023-05-21T14:34:36;21.70;52.50
23729;DHT22;12045;60.214;24.724;2023-05-21T14:37:04;21.70;53.30
23729;DHT22;12045;60.214;24.724;2023-05-21T14:39:32;21.70;52.70
23729;DHT22;12045;60.214;24.724;2023-05-21T14:42:02;21.60;52.90
23729;DHT22;12045;60.214;24.724;2023-05-21T14:44:31;21.50;53.20
23729;DHT22;12045;60.214;24.724;2023-05-21T14:46:58;21.50;53.60
23729;DHT22;12045;60.214;24.724;2023-05-21T14:49:26;21.60;53.20
23729;DHT22;12045;60.214;24.724;2023-05-21T14:51:55;21.60;53.60
23729;DHT22;12045;60.214;24.724;2023-05-21T14:54:23;21.50;52.20
23729;DHT22;12045;60.214;24.724;2023-05-21T14:56:50;21.50;53.30
23729;DHT22;12045;60.214;24.724;2023-05-21T14:59:18;21.40;53.70
23729;DHT22;12045;60.214;24.724;2023-05-21T15:01:45;21.30;53.20
23729;DHT22;12045;60.214;24.724;2023-05-21T15:04:13;21.20;53.70
23729;DHT22;12045;60.214;24.724;2023-05-21T15:06:40;21.20;52.90
23729;DHT22;12045;60.214;24.724;2023-05-21T15:09:08;21.20;52.90
23729;DHT22;12045;60.214;24.724;2023-05-21T15:11:35;20.70;53.50
23729;DHT22;12045;60.214;24.724;2023-05-21T15:14:03;21.20;53.20
23729;DHT22;12045;60.214;24.724;2023-05-21T15:16:31;21.20;53.20
23729;DHT22;12045;60.214;24.724;2023-05-21T15:18:58;20.80;53.00
23729;DHT22;12045;60.214;24.724;2023-05-21T15:21:26;21.00;53.20
23729;DHT22;12045;60.214;24.724;2023-05-21T15:23:54;20.90;53.20
23729;DHT22;12045;60.214;24.724;2023-05-21T15:26:21;20.80;53.80
23729;DHT22;12045;60.214;24.724;2023-05-21T15:28:51;20.70;55.00
23729;DHT22;12045;60.214;24.724;2023-05-21T15:31:19;20.60;55.70
23729;DHT22;12045;60.214;24.724;2023-05-21T15:33:46;20.60;56.20
23729;DHT22;12045;60.214;24.724;2023-05-21T15:36:14;19.60;56.60
23729;DHT22;12045;60.214;24.724;2023-05-21T15:38:41;20.70;57.70
23729;DHT22;12045;60.214;24.724;2023-05-21T15:41:09;20.80;57.90
23729;DHT22;12045;60.214;24.724;2023-05-21T15:43:36;20.80;58.40
23729;DHT22;12045;60.214;24.724;2023-05-21T15:46:04;20.70;58.70
23729;DHT22;12045;60.214;24.724;2023-05-21T15:48:32;20.70;59.40
23729;DHT22;12045;60.214;24.724;2023-05-21T15:50:59;20.80;59.70
23729;DHT22;12045;60.214;24.724;2023-05-21T15:53:26;20.80;60.20
23729;DHT22;12045;60.214;24.724;2023-05-21T15:55:54;20.60;60.60
23729;DHT22;12045;60.214;24.724;2023-05-21T15:58:22;20.60;60.90
23729;DHT22;12045;60.214;24.724;2023-05-21T16:00:50;20.60;61.20
23729;DHT22;12045;60.214;24.724;2023-05-21T16:03:17;20.60;60.50
23729;DHT22;12045;60.214;24.724;2023-05-21T16:05:45;21.10;61.40
23729;DHT22;12045;60.214;24.724;2023-05-21T16:08:13;20.60;59.80
23729;DHT22;12045;60.214;24.724;2023-05-21T16:10:40;20.70;59.50
23729;DHT22;12045;60.214;24.724;2023-05-21T16:13:08;20.50;58.70
23729;DHT22;12045;60.214;24.724;2023-05-21T16:15:35;20.50;58.70
23729;DHT22;12045;60.214;24.724;2023-05-21T16:18:04;21.00;59.60
23729;DHT22;12045;60.214;24.724;2023-05-21T16:20:31;20.60;59.50
23729;DHT22;12045;60.214;24.724;2023-05-21T16:22:59;20.80;58.90
23729;DHT22;12045;60.214;24.724;2023-05-21T16:25:27;20.70;58.70
23729;DHT22;12045;60.214;24.724;2023-05-21T16:27:54;20.70;58.30
23729;DHT22;12045;60.214;24.724;2023-05-21T16:30:21;21.20;58.60
23729;DHT22;12045;60.214;24.724;2023-05-21T16:32:50;20.80;57.70
23729;DHT22;12045;60.214;24.724;2023-05-21T16:35:17;20.60;56.20
23729;DHT22;12045;60.214;24.724;2023-05-21T16:37:45;20.20;56.40
23729;DHT22;12045;60.214;24.724;2023-05-21T16:40:12;20.50;57.10
23729;DHT22;12045;60.214;24.724;2023-05-21T16:42:40;20.50;56.60
23729;DHT22;12045;60.214;24.724;2023-05-21T16:45:08;20.50;56.50
23729;DHT22;12045;60.214;24.724;2023-05-21T16:47:39;20.60;56.00
23729;DHT22;12045;60.214;24.724;2023-05-21T16:50:07;20.50;55.90
23729;DHT22;12045;60.214;24.724;2023-05-21T16:52:35;20.50;56.40
23729;DHT22;12045;60.214;24.724;2023-05-21T16:55:02;20.50;56.10
23729;DHT22;12045;60.214;24.724;2023-05-21T16:57:30;20.40;56.10
23729;DHT22;12045;60.214;24.724;2023-05-21T16:59:58;20.30;57.10
23729;DHT22;12045;60.214;24.724;2023-05-21T17:02:25;20.20;56.60
23729;DHT22;12045;60.214;24.724;2023-05-21T17:04:53;20.30;57.80
23729;DHT22;12045;60.214;24.724;2023-05-21T17:07:20;19.70;56.40
23729;DHT22;12045;60.214;24.724;2023-05-21T17:09:48;20.40;56.80
23729;DHT22;12045;60.214;24.724;2023-05-21T17:12:16;20.40;57.00
23729;DHT22;12045;60.214;24.724;2023-05-21T17:14:43;20.40;57.20
23729;DHT22;12045;60.214;24.724;2023-05-21T17:17:10;20.40;57.00
23729;DHT22;12045;60.214;24.724;2023-05-21T17:19:38;20.30;57.30
23729;DHT22;12045;60.214;24.724;2023-05-21T17:22:05;20.40;57.10
23729;DHT22;12045;60.214;24.724;2023-05-21T17:24:33;20.20;57.30
23729;DHT22;12045;60.214;24.724;2023-05-21T17:27:01;20.20;57.10
23729;DHT22;12045;60.214;24.724;2023-05-21T17:29:28;20.20;57.30
23729;DHT22;12045;60.214;24.724;2023-05-21T17:31:56;20.20;57.70
23729;DHT22;12045;60.214;24.724;2023-05-21T17:34:24;20.10;58.20
23729;DHT22;12045;60.214;24.724;2023-05-21T17:36:56;20.10;58.60
23729;DHT22;12045;60.214;24.724;2023-05-21T17:39:24;20.10;58.80
23729;DHT22;12045;60.214;24.724;2023-05-21T17:41:52;20.10;59.00
23729;DHT22;12045;60.214;24.724;2023-05-21T17:44:20;20.20;58.90
23729;DHT22;12045;60.214;24.724;2023-05-21T17:46:48;20.20;59.20
23729;DHT22;12045;60.214;24.724;2023-05-21T17:49:16;20.10;59.30
23729;DHT22;12045;60.214;24.724;2023-05-21T17:51:44;19.70;58.80
23729;DHT22;12045;60.214;24.724;2023-05-21T17:54:11;20.20;59.20
23729;DHT22;12045;60.214;24.724;2023-05-21T17:56:39;20.00;59.30
23729;DHT22;12045;60.214;24.724;2023-05-21T17:59:07;20.00;59.70
23729;DHT22;12045;60.214;24.724;2023-05-21T18:01:36;19.90;60.30
23729;DHT22;12045;60.214;24.724;2023-05-21T18:04:05;19.90;60.30
23729;DHT22;12045;60.214;24.724;2023-05-21T18:06:36;19.90;60.30
23729;DHT22;12045;60.214;24.724;2023-05-21T18:09:04;19.90;60.60
23729;DHT22;12045;60.214;24.724;2023-05-21T18:11:34;19.80;60.60
23729;DHT22;12045;60.214;24.724;2023-05-21T18:14:01;19.70;61.20
23729;DHT22;12045;60.214;24.724;2023-05-21T18:16:30;19.60;61.40
23729;DHT22;12045;60.214;24.724;2023-05-21T18:18:57;19.50;61.80
23729;DHT22;12045;60.214;24.724;2023-05-21T18:21:28;19.60;62.00
23729;DHT22;12045;60.214;24.724;2023-05-21T18:23:55;19.30;62.00
23729;DHT22;12045;60.214;24.724;2023-05-21T18:26:23;19.40;62.20
23729;DHT22;12045;60.214;24.724;2023-05-21T18:28:51;19.40;62.60
23729;DHT22;12045;60.214;24.724;2023-05-21T18:31:18;19.40;62.80
23729;DHT22;12045;60.214;24.724;2023-05-21T18:33:46;19.30;62.70
23729;DHT22;12045;60.214;24.724;2023-05-21T18:36:14;19.30;62.60
23729;DHT22;12045;60.214;24.724;2023-05-21T18:38:43;19.20;62.80
23729;DHT22;12045;60.214;24.724;2023-05-21T18:41:10;19.30;62.70
23729;DHT22;12045;60.214;24.724;2023-05-21T18:43:38;19.10;63.20
23729;DHT22;12045;60.214;24.724;2023-05-21T18:46:07;19.00;63.90
23729;DHT22;12045;60.214;24.724;2023-05-21T18:48:35;18.90;63.70
23729;DHT22;12045;60.214;24.724;2023-05-21T18:51:03;18.80;64.40
23729;DHT22;12045;60.214;24.724;2023-05-21T18:53:30;18.80;64.50
23729;DHT22;12045;60.214;24.724;2023-05-21T18:55:58;18.80;64.50
23729;DHT22;12045;60.214;24.724;2023-05-21T18:58:26;18.80;64.60
23729;DHT22;12045;60.214;24.724;2023-05-21T19:00:55;18.50;64.10
23729;DHT22;12045;60.214;24.724;2023-05-21T19:03:22;18.60;64.10
23729;DHT22;12045;60.214;24.724;2023-05-21T19:05:50;18.60;64.50
23729;DHT22;12045;60.214;24.724;2023-05-21T19:08:17;18.50;64.90
23729;DHT22;12045;60.214;24.724;2023-05-21T19:10:46;18.60;64.50
23729;DHT22;12045;60.214;24.724;2023-05-21T19:13:13;18.50;64.50
23729;DHT22;12045;60.214;24.724;2023-05-21T19:15:41;18.50;64.30
23729;DHT22;12045;60.214;24.724;2023-05-21T19:18:13;18.50;64.30
23729;DHT22;12045;60.214;24.724;2023-05-21T19:20:40;18.40;64.50
23729;DHT22;12045;60.214;24.724;2023-05-21T19:23:08;18.40;64.50
23729;DHT22;12045;60.214;24.724;2023-05-21T19:25:36;18.00;67.10
23729;DHT22;12045;60.214;24.724;2023-05-21T19:28:03;18.30;66.20
23729;DHT22;12045;60.214;24.724;2023-05-21T19:30:31;17.80;65.40
23729;DHT22;12045;60.214;24.724;2023-05-21T19:33:01;19.10;66.20
23729;DHT22;12045;60.214;24.724;2023-05-21T19:35:28;17.60;64.10
23729;DHT22;12045;60.214;24.724;2023-05-21T19:37:56;18.20;65.10
23729;DHT22;12045;60.214;24.724;2023-05-21T19:40:28;18.10;66.20
23729;DHT22;12045;60.214;24.724;2023-05-21T19:42:56;18.10;66.40
23729;DHT22;12045;60.214;24.724;2023-05-21T19:45:23;18.20;65.60
23729;DHT22;12045;60.214;24.724;2023-05-21T19:47:51;18.00;65.30
23729;DHT22;12045;60.214;24.724;2023-05-21T19:50:19;17.50;66.60
23729;DHT22;12045;60.214;24.724;2023-05-21T19:52:47;17.80;66.00
23729;DHT22;12045;60.214;24.724;2023-05-21T19:55:14;17.70;67.40
23729;DHT22;12045;60.214;24.724;2023-05-21T19:57:46;17.70;66.70
23729;DHT22;12045;60.214;24.724;2023-05-21T20:00:14;17.50;66.40
23729;DHT22;12045;60.214;24.724;2023-05-21T20:02:42;17.60;65.70
23729;DHT22;12045;60.214;24.724;2023-05-21T20:05:10;17.50;65.60
23729;DHT22;12045;60.214;24.724;2023-05-21T20:07:37;17.50;66.00
23729;DHT22;12045;60.214;24.724;2023-05-21T20:10:05;17.40;66.00
23729;DHT22;12045;60.214;24.724;2023-05-21T20:12:33;17.30;68.00
23729;DHT22;12045;60.214;24.724;2023-05-21T20:15:02;17.20;66.40
23729;DHT22;12045;60.214;24.724;2023-05-21T20:17:29;17.20;66.60
23729;DHT22;12045;60.214;24.724;2023-05-21T20:19:57;17.20;66.00
23729;DHT22;12045;60.214;24.724;2023-05-21T20:22:26;17.30;66.10
23729;DHT22;12045;60.214;24.724;2023-05-21T20:24:54;17.30;65.60
23729;DHT22;12045;60.214;24.724;2023-05-21T20:27:22;17.40;65.80
23729;DHT22;12045;60.214;24.724;2023-05-21T20:29:49;17.30;65.60
23729;DHT22;12045;60.214;24.724;2023-05-21T20:32:16;17.30;65.60
23729;DHT22;12045;60.214;24.724;2023-05-21T20:34:44;17.20;65.80
23729;DHT22;12045;60.214;24.724;2023-05-21T20:37:29;17.10;66.00
23729;DHT22;12045;60.214;24.724;2023-05-21T20:39:58;17.10;66.10
23729;DHT22;12045;60.214;24.724;2023-05-21T20:42:26;17.10;66.10
23729;DHT22;12045;60.214;24.724;2023-05-21T20:45:01;17.80;66.10
23729;DHT22;12045;60.214;24.724;2023-05-21T20:47:29;17.20;65.50
23729;DHT22;12045;60.214;24.724;2023-05-21T20:49:58;17.20;65.90
23729;DHT22;12045;60.214;24.724;2023-05-21T20:52:25;17.30;65.90
23729;DHT22;12045;60.214;24.724;2023-05-21T20:54:53;17.40;66.00
23729;DHT22;12045;60.214;24.724;2023-05-21T20:57:21;17.40;66.10
23729;DHT22;12045;60.214;24.724;2023-05-21T20:59:49;16.90;66.70
23729;DHT22;12045;60.214;24.724;2023-05-21T21:02:18;16.80;66.00
23729;DHT22;12045;60.214;24.724;2023-05-21T21:04:46;17.30;67.00
23729;DHT22;12045;60.214;24.724;2023-05-21T21:07:16;17.20;67.40
23729;DHT22;12045;60.214;24.724;2023-05-21T21:09:47;17.20;67.70
23729;DHT22;12045;60.214;24.724;2023-05-21T21:12:15;17.20;68.00
23729;DHT22;12045;60.214;24.724;2023-05-21T21:14:52;17.10;68.30
23729;DHT22;12045;60.214;24.724;2023-05-21T21:17:20;17.10;68.30
23729;DHT22;12045;60.214;24.724;2023-05-21T21:19:48;17.20;68.40
23729;DHT22;12045;60.214;24.724;2023-05-21T21:22:15;17.20;68.30
23729;DHT22;12045;60.214;24.724;2023-05-21T21:24:44;17.30;68.50
23729;DHT22;12045;60.214;24.724;2023-05-21T21:27:12;17.30;68.80
23729;DHT22;12045;60.214;24.724;2023-05-21T21:29:39;17.20;69.60
23729;DHT22;12045;60.214;24.724;2023-05-21T21:32:07;17.10;70.40
23729;DHT22;12045;60.214;24.724;2023-05-21T21:34:34;17.00;70.40
23729;DHT22;12045;60.214;24.724;2023-05-21T21:37:02;16.90;70.40
23729;DHT22;12045;60.214;24.724;2023-05-21T21:39:30;16.90;70.70
23729;DHT22;12045;60.214;24.724;2023-05-21T21:41:57;17.00;71.00
23729;DHT22;12045;60.214;24.724;2023-05-21T21:44:25;17.00;70.80
23729;DHT22;12045;60.214;24.724;2023-05-21T21:46:52;17.40;71.70
23729;DHT22;12045;60.214;24.724;2023-05-21T21:49:20;16.80;72.10
23729;DHT22;12045;60.214;24.724;2023-05-21T21:51:47;16.50;73.70
23729;DHT22;12045;60.214;24.724;2023-05-21T21:54:15;16.40;74.90
23729;DHT22;12045;60.214;24.724;2023-05-21T21:56:42;16.40;75.90
23729;DHT22;12045;60.214;24.724;2023-05-21T21:59:10;16.30;75.80
23729;DHT22;12045;60.214;24.724;2023-05-21T22:01:37;16.30;74.70
23729;DHT22;12045;60.214;24.724;2023-05-21T22:04:05;16.30;74.80
23729;DHT22;12045;60.214;24.724;2023-05-21T22:06:33;16.30;74.90
23729;DHT22;12045;60.214;24.724;2023-05-21T22:09:00;16.30;75.30
23729;DHT22;12045;60.214;24.724;2023-05-21T22:11:28;16.30;75.70
23729;DHT22;12045;60.214;24.724;2023-05-21T22:13:57;16.20;76.90
23729;DHT22;12045;60.214;24.724;2023-05-21T22:16:26;16.10;77.80
23729;DHT22;12045;60.214;24.724;2023-05-21T22:18:54;16.00;78.70
23729;DHT22;12045;60.214;24.724;2023-05-21T22:21:24;15.90;78.00
23729;DHT22;12045;60.214;24.724;2023-05-21T22:23:55;15.60;77.60
23729;DHT22;12045;60.214;24.724;2023-05-21T22:26:23;15.60;78.60
23729;DHT22;12045;60.214;24.724;2023-05-21T22:28:50;15.70;77.30
23729;DHT22;12045;60.214;24.724;2023-05-21T22:31:18;15.70;77.40
23729;DHT22;12045;60.214;24.724;2023-05-21T22:33:46;15.80;77.90
23729;DHT22;12045;60.214;24.724;2023-05-21T22:36:13;15.60;82.40
23729;DHT22;12045;60.214;24.724;2023-05-21T22:38:41;16.20;79.50
23729;DHT22;12045;60.214;24.724;2023-05-21T22:41:10;15.30;80.80
23729;DHT22;12045;60.214;24.724;2023-05-21T22:43:38;15.20;81.00
23729;DHT22;12045;60.214;24.724;2023-05-21T22:46:05;15.20;81.80
23729;DHT22;12045;60.214;24.724;2023-05-21T22:48:33;15.70;83.90
23729;DHT22;12045;60.214;24.724;2023-05-21T22:51:03;14.80;83.10
23729;DHT22;12045;60.214;24.724;2023-05-21T22:53:32;14.60;82.80
23729;DHT22;12045;60.214;24.724;2023-05-21T22:56:00;14.50;82.70
23729;DHT22;12045;60.214;24.724;2023-05-21T22:58:27;14.60;82.40
23729;DHT22;12045;60.214;24.724;2023-05-21T23:00:55;14.70;81.80
23729;DHT22;12045;60.214;24.724;2023-05-21T23:03:22;15.00;81.60
23729;DHT22;12045;60.214;24.724;2023-05-21T23:05:50;15.20;80.90
23729;DHT22;12045;60.214;24.724;2023-05-21T23:08:17;15.20;83.30
23729;DHT22;12045;60.214;24.724;2023-05-21T23:10:45;15.00;83.70
23729;DHT22;12045;60.214;24.724;2023-05-21T23:13:12;14.80;84.50
23729;DHT22;12045;60.214;24.724;2023-05-21T23:15:40;14.70;85.30
23729;DHT22;12045;60.214;24.724;2023-05-21T23:18:10;14.60;88.10
23729;DHT22;12045;60.214;24.724;2023-05-21T23:20:41;14.30;90.70
23729;DHT22;12045;60.214;24.724;2023-05-21T23:23:09;13.80;93.50
23729;DHT22;12045;60.214;24.724;2023-05-21T23:25:37;13.50;96.60
23729;DHT22;12045;60.214;24.724;2023-05-21T23:28:05;14.10;97.90
23729;DHT22;12045;60.214;24.724;2023-05-21T23:30:33;13.20;99.90
23729;DHT22;12045;60.214;24.724;2023-05-21T23:33:00;13.10;98.30
23729;DHT22;12045;60.214;24.724;2023-05-21T23:35:28;13.20;99.50
23729;DHT22;12045;60.214;24.724;2023-05-21T23:37:56;13.30;97.50
23729;DHT22;12045;60.214;24.724;2023-05-21T23:40:23;13.30;99.90
23729;DHT22;12045;60.214;24.724;2023-05-21T23:42:51;13.20;99.90
23729;DHT22;12045;60.214;24.724;2023-05-21T23:45:19;13.10;99.90
23729;DHT22;12045;60.214;24.724;2023-05-21T23:47:47;13.10;99.90
23729;DHT22;12045;60.214;24.724;2023-05-21T23:50:14;13.10;99.90
23729;DHT22;12045;60.214;24.724;2023-05-21T23:52:42;13.20;99.90
23729;DHT22;12045;60.214;24.724;2023-05-21T23:55:10;13.20;99.90
23729;DHT22;12045;60.214;24.724;2023-05-21T23:57:41;13.00;99.90
